sensor_id;sensor_type;location;lat;lon;timestamp;temperature;humidity
13610;DHT22;6876;50.788;4.940;2023-04-25T00:01:03;8.60;25.70
13610;DHT22;6876;50.788;4.940;2023-04-25T00:03:51;8.70;58.90
13610;DHT22;6876;50.788;4.940;2023-04-25T00:06:40;8.70;1.00
13610;DHT22;6876;50.788;4.940;2023-04-25T00:09:27;8.70;1.00
13610;DHT22;6876;50.788;4.940;2023-04-25T00:12:14;8.70;1.00
13610;DHT22;6876;50.788;4.940;2023-04-25T00:15:03;8.70;1.00
13610;DHT22;6876;50.788;4.940;2023-04-25T00:17:50;8.60;1.00
13610;DHT22;6876;50.788;4.940;2023-04-25T00:20:38;8.50;1.00
13610;DHT22;6876;50.788;4.940;2023-04-25T00:23:28;8.50;1.00
13610;DHT22;6876;50.788;4.940;2023-04-25T00:26:15;8.50;1.00
13610;DHT22;6876;50.788;4.940;2023-04-25T00:29:03;8.50;1.00
13610;DHT22;6876;50.788;4.940;2023-04-25T00:31:50;8.50;1.00
13610;DHT22;6876;50.788;4.940;2023-04-25T00:34:37;8.50;1.00
13610;DHT22;6876;50.788;4.940;2023-04-25T00:37:25;8.50;1.00
13610;DHT22;6876;50.788;4.940;2023-04-25T00:40:13;8.50;1.00
13610;DHT22;6876;50.788;4.940;2023-04-25T00:43:01;8.60;1.00
13610;DHT22;6876;50.788;4.940;2023-04-25T00:45:48;8.50;1.00
13610;DHT22;6876;50.788;4.940;2023-04-25T00:48:37;8.50;1.00
13610;DHT22;6876;50.788;4.940;2023-04-25T00:51:25;8.50;1.00
13610;DHT22;6876;50.788;4.940;2023-04-25T00:54:13;8.50;1.00
13610;DHT22;6876;50.788;4.940;2023-04-25T00:57:02;8.50;1.00
13610;DHT22;6876;50.788;4.940;2023-04-25T00:59:51;8.40;1.00
13610;DHT22;6876;50.788;4.940;2023-04-25T01:02:40;8.50;1.00
13610;DHT22;6876;50.788;4.940;2023-04-25T01:05:27;8.40;1.00
13610;DHT22;6876;50.788;4.940;2023-04-25T01:08:14;8.40;1.00
13610;DHT22;6876;50.788;4.940;2023-04-25T01:11:02;8.40;1.00
13610;DHT22;6876;50.788;4.940;2023-04-25T01:13:51;8.30;1.00
13610;DHT22;6876;50.788;4.940;2023-04-25T01:16:39;8.40;1.00
13610;DHT22;6876;50.788;4.940;2023-04-25T01:19:27;8.40;1.00
13610;DHT22;6876;50.788;4.940;2023-04-25T01:22:16;8.40;1.00
13610;DHT22;6876;50.788;4.940;2023-04-25T01:25:04;8.40;1.00
13610;DHT22;6876;50.788;4.940;2023-04-25T01:27:52;8.40;1.00
13610;DHT22;6876;50.788;4.940;2023-04-25T01:30:39;8.40;1.00
13610;DHT22;6876;50.788;4.940;2023-04-25T01:33:27;8.30;1.00
13610;DHT22;6876;50.788;4.940;2023-04-25T01:36:15;8.30;1.00
13610;DHT22;6876;50.788;4.940;2023-04-25T01:39:04;8.30;1.00
13610;DHT22;6876;50.788;4.940;2023-04-25T01:41:52;8.20;36.00
13610;DHT22;6876;50.788;4.940;2023-04-25T01:44:39;8.20;10.30
13610;DHT22;6876;50.788;4.940;2023-04-25T01:47:26;8.10;40.50
13610;DHT22;6876;50.788;4.940;2023-04-25T01:50:14;8.10;25.50
13610;DHT22;6876;50.788;4.940;2023-04-25T01:53:01;8.10;26.80
13610;DHT22;6876;50.788;4.940;2023-04-25T01:55:50;8.10;44.80
13610;DHT22;6876;50.788;4.940;2023-04-25T01:58:37;8.00;53.60
13610;DHT22;6876;50.788;4.940;2023-04-25T02:01:25;8.10;92.40
13610;DHT22;6876;50.788;4.940;2023-04-25T02:04:12;8.00;99.90
13610;DHT22;6876;50.788;4.940;2023-04-25T02:06:59;8.00;99.90
13610;DHT22;6876;50.788;4.940;2023-04-25T02:09:46;8.00;99.90
13610;DHT22;6876;50.788;4.940;2023-04-25T02:12:35;8.00;99.90
13610;DHT22;6876;50.788;4.940;2023-04-25T02:15:23;8.10;99.90
13610;DHT22;6876;50.788;4.940;2023-04-25T02:18:10;8.10;99.90
13610;DHT22;6876;50.788;4.940;2023-04-25T02:20:58;8.00;99.90
13610;DHT22;6876;50.788;4.940;2023-04-25T02:23:45;8.00;99.90
13610;DHT22;6876;50.788;4.940;2023-04-25T02:26:34;8.00;99.90
13610;DHT22;6876;50.788;4.940;2023-04-25T02:29:24;8.10;99.90
13610;DHT22;6876;50.788;4.940;2023-04-25T02:32:11;8.00;83.50
13610;DHT22;6876;50.788;4.940;2023-04-25T02:34:58;8.00;99.90
13610;DHT22;6876;50.788;4.940;2023-04-25T02:37:49;8.00;99.90
13610;DHT22;6876;50.788;4.940;2023-04-25T02:40:36;7.90;99.90
13610;DHT22;6876;50.788;4.940;2023-04-25T02:43:24;7.90;99.90
13610;DHT22;6876;50.788;4.940;2023-04-25T02:46:13;7.90;99.90
13610;DHT22;6876;50.788;4.940;2023-04-25T02:49:01;7.90;99.90
13610;DHT22;6876;50.788;4.940;2023-04-25T02:51:48;7.90;99.90
13610;DHT22;6876;50.788;4.940;2023-04-25T02:54:36;7.90;99.90
13610;DHT22;6876;50.788;4.940;2023-04-25T02:57:23;7.80;99.90
13610;DHT22;6876;50.788;4.940;2023-04-25T03:00:13;7.80;99.90
13610;DHT22;6876;50.788;4.940;2023-04-25T03:03:02;7.90;99.90
13610;DHT22;6876;50.788;4.940;2023-04-25T03:05:50;7.90;99.90
13610;DHT22;6876;50.788;4.940;2023-04-25T03:08:37;7.90;99.90
13610;DHT22;6876;50.788;4.940;2023-04-25T03:11:25;7.90;99.90
13610;DHT22;6876;50.788;4.940;2023-04-25T03:14:13;7.90;99.90
13610;DHT22;6876;50.788;4.940;2023-04-25T03:17:00;7.90;99.90
13610;DHT22;6876;50.788;4.940;2023-04-25T03:19:49;7.90;99.90
13610;DHT22;6876;50.788;4.940;2023-04-25T03:22:36;7.90;99.90
13610;DHT22;6876;50.788;4.940;2023-04-25T03:25:24;7.90;99.90
13610;DHT22;6876;50.788;4.940;2023-04-25T03:28:11;7.90;99.90
13610;DHT22;6876;50.788;4.940;2023-04-25T03:30:58;7.90;99.90
13610;DHT22;6876;50.788;4.940;2023-04-25T03:33:45;7.90;99.90
13610;DHT22;6876;50.788;4.940;2023-04-25T03:36:34;7.90;99.90
13610;DHT22;6876;50.788;4.940;2023-04-25T03:39:22;7.90;99.90
13610;DHT22;6876;50.788;4.940;2023-04-25T03:42:09;7.90;99.90
13610;DHT22;6876;50.788;4.940;2023-04-25T03:44:56;7.90;99.90
13610;DHT22;6876;50.788;4.940;2023-04-25T03:47:44;7.90;99.90
13610;DHT22;6876;50.788;4.940;2023-04-25T03:50:31;7.80;99.90
13610;DHT22;6876;50.788;4.940;2023-04-25T03:53:20;7.80;99.90
13610;DHT22;6876;50.788;4.940;2023-04-25T03:56:07;7.80;99.90
13610;DHT22;6876;50.788;4.940;2023-04-25T03:58:55;7.80;99.90
13610;DHT22;6876;50.788;4.940;2023-04-25T04:01:42;7.80;99.90
13610;DHT22;6876;50.788;4.940;2023-04-25T04:04:30;7.70;99.90
13610;DHT22;6876;50.788;4.940;2023-04-25T04:07:17;7.70;99.90
13610;DHT22;6876;50.788;4.940;2023-04-25T04:10:06;7.70;99.90
13610;DHT22;6876;50.788;4.940;2023-04-25T04:12:54;7.60;99.90
13610;DHT22;6876;50.788;4.940;2023-04-25T04:15:41;7.60;99.90
13610;DHT22;6876;50.788;4.940;2023-04-25T04:18:28;7.60;99.90
13610;DHT22;6876;50.788;4.940;2023-04-25T04:21:16;7.60;99.90
13610;DHT22;6876;50.788;4.940;2023-04-25T04:24:04;7.60;99.90
13610;DHT22;6876;50.788;4.940;2023-04-25T04:26:52;7.60;99.90
13610;DHT22;6876;50.788;4.940;2023-04-25T04:29:40;7.50;99.90
13610;DHT22;6876;50.788;4.940;2023-04-25T04:32:28;7.50;99.90
13610;DHT22;6876;50.788;4.940;2023-04-25T04:35:16;7.40;99.90
13610;DHT22;6876;50.788;4.940;2023-04-25T04:38:03;7.40;99.90
13610;DHT22;6876;50.788;4.940;2023-04-25T04:40:51;7.40;99.90
13610;DHT22;6876;50.788;4.940;2023-04-25T04:43:39;7.40;99.90
13610;DHT22;6876;50.788;4.940;2023-04-25T04:46:27;7.40;99.90
13610;DHT22;6876;50.788;4.940;2023-04-25T04:49:16;7.40;99.90
13610;DHT22;6876;50.788;4.940;2023-04-25T04:52:03;7.40;99.90
13610;DHT22;6876;50.788;4.940;2023-04-25T04:54:51;7.50;99.90
13610;DHT22;6876;50.788;4.940;2023-04-25T04:57:38;7.40;99.90
13610;DHT22;6876;50.788;4.940;2023-04-25T05:00:27;7.40;99.90
13610;DHT22;6876;50.788;4.940;2023-04-25T05:03:15;7.40;99.90
13610;DHT22;6876;50.788;4.940;2023-04-25T05:06:02;7.30;99.90
13610;DHT22;6876;50.788;4.940;2023-04-25T05:08:50;7.40;99.90
13610;DHT22;6876;50.788;4.940;2023-04-25T05:11:38;7.50;99.90
13610;DHT22;6876;50.788;4.940;2023-04-25T05:14:26;7.50;99.90
13610;DHT22;6876;50.788;4.940;2023-04-25T05:17:14;7.60;99.90
13610;DHT22;6876;50.788;4.940;2023-04-25T05:20:02;7.60;78.50
13610;DHT22;6876;50.788;4.940;2023-04-25T05:22:51;7.50;73.10
13610;DHT22;6876;50.788;4.940;2023-04-25T05:25:38;7.60;44.60
13610;DHT22;6876;50.788;4.940;2023-04-25T05:28:26;7.60;29.80
13610;DHT22;6876;50.788;4.940;2023-04-25T05:31:13;7.60;35.80
13610;DHT22;6876;50.788;4.940;2023-04-25T05:34:02;7.50;88.70
13610;DHT22;6876;50.788;4.940;2023-04-25T05:36:49;7.50;83.40
13610;DHT22;6876;50.788;4.940;2023-04-25T05:39:36;7.50;99.90
13610;DHT22;6876;50.788;4.940;2023-04-25T05:42:24;7.50;99.90
13610;DHT22;6876;50.788;4.940;2023-04-25T05:45:11;7.60;99.90
13610;DHT22;6876;50.788;4.940;2023-04-25T05:47:58;7.50;99.90
13610;DHT22;6876;50.788;4.940;2023-04-25T05:50:47;7.60;99.90
13610;DHT22;6876;50.788;4.940;2023-04-25T05:53:35;7.60;99.90
13610;DHT22;6876;50.788;4.940;2023-04-25T05:56:22;7.70;99.90
13610;DHT22;6876;50.788;4.940;2023-04-25T05:59:09;7.80;99.90
13610;DHT22;6876;50.788;4.940;2023-04-25T06:01:56;7.80;99.90
13610;DHT22;6876;50.788;4.940;2023-04-25T06:04:44;7.70;99.90
13610;DHT22;6876;50.788;4.940;2023-04-25T06:07:32;7.70;99.90
13610;DHT22;6876;50.788;4.940;2023-04-25T06:10:20;7.70;99.90
13610;DHT22;6876;50.788;4.940;2023-04-25T06:13:08;7.80;99.90
13610;DHT22;6876;50.788;4.940;2023-04-25T06:15:55;7.70;99.90
13610;DHT22;6876;50.788;4.940;2023-04-25T06:18:43;7.80;99.90
13610;DHT22;6876;50.788;4.940;2023-04-25T06:21:30;7.80;99.90
13610;DHT22;6876;50.788;4.940;2023-04-25T06:24:19;7.70;99.90
13610;DHT22;6876;50.788;4.940;2023-04-25T06:27:06;7.70;99.90
13610;DHT22;6876;50.788;4.940;2023-04-25T06:29:54;7.70;99.90
13610;DHT22;6876;50.788;4.940;2023-04-25T06:32:41;7.70;99.90
13610;DHT22;6876;50.788;4.940;2023-04-25T06:35:28;7.80;99.90
13610;DHT22;6876;50.788;4.940;2023-04-25T06:38:16;7.70;99.90
13610;DHT22;6876;50.788;4.940;2023-04-25T06:41:04;7.70;99.90
13610;DHT22;6876;50.788;4.940;2023-04-25T06:43:52;7.80;99.90
13610;DHT22;6876;50.788;4.940;2023-04-25T06:46:39;7.80;99.90
13610;DHT22;6876;50.788;4.940;2023-04-25T06:49:26;7.90;99.90
13610;DHT22;6876;50.788;4.940;2023-04-25T06:52:14;7.80;47.70
13610;DHT22;6876;50.788;4.940;2023-04-25T06:55:01;7.90;56.10
13610;DHT22;6876;50.788;4.940;2023-04-25T06:57:50;7.90;1.00
13610;DHT22;6876;50.788;4.940;2023-04-25T07:00:37;8.10;1.00
13610;DHT22;6876;50.788;4.940;2023-04-25T07:03:24;8.10;1.00
13610;DHT22;6876;50.788;4.940;2023-04-25T07:06:11;8.10;1.00
13610;DHT22;6876;50.788;4.940;2023-04-25T07:08:59;8.20;1.00
13610;DHT22;6876;50.788;4.940;2023-04-25T07:11:46;8.20;99.90
13610;DHT22;6876;50.788;4.940;2023-04-25T07:14:35;8.40;1.00
13610;DHT22;6876;50.788;4.940;2023-04-25T07:17:22;8.50;1.00
13610;DHT22;6876;50.788;4.940;2023-04-25T07:20:10;8.50;1.00
13610;DHT22;6876;50.788;4.940;2023-04-25T07:22:58;8.60;99.90
13610;DHT22;6876;50.788;4.940;2023-04-25T07:25:45;8.80;99.90
13610;DHT22;6876;50.788;4.940;2023-04-25T07:28:32;9.00;1.00
13610;DHT22;6876;50.788;4.940;2023-04-25T07:31:21;9.00;1.00
13610;DHT22;6876;50.788;4.940;2023-04-25T07:34:09;9.10;1.00
13610;DHT22;6876;50.788;4.940;2023-04-25T07:36:57;9.30;1.00
13610;DHT22;6876;50.788;4.940;2023-04-25T07:39:45;9.60;1.00
13610;DHT22;6876;50.788;4.940;2023-04-25T07:42:33;9.90;1.00
13610;DHT22;6876;50.788;4.940;2023-04-25T07:45:20;9.90;1.00
13610;DHT22;6876;50.788;4.940;2023-04-25T07:48:09;10.00;1.00
13610;DHT22;6876;50.788;4.940;2023-04-25T07:50:56;10.10;1.00
13610;DHT22;6876;50.788;4.940;2023-04-25T07:53:44;10.10;1.00
13610;DHT22;6876;50.788;4.940;2023-04-25T07:56:31;10.10;1.00
13610;DHT22;6876;50.788;4.940;2023-04-25T07:59:18;10.30;1.00
13610;DHT22;6876;50.788;4.940;2023-04-25T08:02:06;10.50;1.00
13610;DHT22;6876;50.788;4.940;2023-04-25T08:04:54;10.50;1.00
13610;DHT22;6876;50.788;4.940;2023-04-25T08:07:42;10.50;1.00
13610;DHT22;6876;50.788;4.940;2023-04-25T08:10:29;10.40;1.00
13610;DHT22;6876;50.788;4.940;2023-04-25T08:13:16;10.10;1.00
13610;DHT22;6876;50.788;4.940;2023-04-25T08:16:04;10.10;1.00
13610;DHT22;6876;50.788;4.940;2023-04-25T08:18:51;10.10;1.00
13610;DHT22;6876;50.788;4.940;2023-04-25T08:21:40;10.20;1.00
13610;DHT22;6876;50.788;4.940;2023-04-25T08:24:27;10.10;1.00
13610;DHT22;6876;50.788;4.940;2023-04-25T08:27:15;10.10;1.00
13610;DHT22;6876;50.788;4.940;2023-04-25T08:30:03;10.10;1.00
13610;DHT22;6876;50.788;4.940;2023-04-25T08:32:51;10.20;1.00
13610;DHT22;6876;50.788;4.940;2023-04-25T08:35:38;10.20;1.00
13610;DHT22;6876;50.788;4.940;2023-04-25T08:38:27;10.20;1.00
13610;DHT22;6876;50.788;4.940;2023-04-25T08:41:15;10.10;1.00
13610;DHT22;6876;50.788;4.940;2023-04-25T08:44:03;10.00;1.00
13610;DHT22;6876;50.788;4.940;2023-04-25T08:46:52;9.80;1.00
13610;DHT22;6876;50.788;4.940;2023-04-25T08:49:45;9.70;1.00
13610;DHT22;6876;50.788;4.940;2023-04-25T08:52:36;9.70;1.00
13610;DHT22;6876;50.788;4.940;2023-04-25T08:55:26;9.50;1.00
13610;DHT22;6876;50.788;4.940;2023-04-25T08:58:14;9.40;1.00
13610;DHT22;6876;50.788;4.940;2023-04-25T09:01:02;9.20;1.00
13610;DHT22;6876;50.788;4.940;2023-04-25T09:03:50;9.10;1.00
13610;DHT22;6876;50.788;4.940;2023-04-25T09:06:37;9.10;1.00
13610;DHT22;6876;50.788;4.940;2023-04-25T09:09:25;9.10;1.00
13610;DHT22;6876;50.788;4.940;2023-04-25T09:12:13;9.20;1.00
13610;DHT22;6876;50.788;4.940;2023-04-25T09:15:03;9.40;1.00
13610;DHT22;6876;50.788;4.940;2023-04-25T09:17:55;9.40;1.00
13610;DHT22;6876;50.788;4.940;2023-04-25T09:20:43;9.50;1.00
13610;DHT22;6876;50.788;4.940;2023-04-25T09:23:31;9.60;1.00
13610;DHT22;6876;50.788;4.940;2023-04-25T09:26:26;9.60;1.00
13610;DHT22;6876;50.788;4.940;2023-04-25T09:29:14;9.80;1.00
13610;DHT22;6876;50.788;4.940;2023-04-25T09:32:13;10.10;1.00
13610;DHT22;6876;50.788;4.940;2023-04-25T09:35:01;10.40;1.00
13610;DHT22;6876;50.788;4.940;2023-04-25T09:37:49;10.60;1.00
13610;DHT22;6876;50.788;4.940;2023-04-25T09:40:41;11.50;1.00
13610;DHT22;6876;50.788;4.940;2023-04-25T09:43:28;13.10;1.00
13610;DHT22;6876;50.788;4.940;2023-04-25T09:46:17;13.00;1.00
13610;DHT22;6876;50.788;4.940;2023-04-25T09:49:07;12.40;1.00
13610;DHT22;6876;50.788;4.940;2023-04-25T09:51:55;12.20;1.00
13610;DHT22;6876;50.788;4.940;2023-04-25T09:54:43;13.20;1.00
13610;DHT22;6876;50.788;4.940;2023-04-25T09:57:31;15.50;1.00
13610;DHT22;6876;50.788;4.940;2023-04-25T10:00:19;16.80;99.90
13610;DHT22;6876;50.788;4.940;2023-04-25T10:03:09;16.10;1.00
13610;DHT22;6876;50.788;4.940;2023-04-25T10:06:00;14.80;1.00
13610;DHT22;6876;50.788;4.940;2023-04-25T10:08:51;13.20;1.00
13610;DHT22;6876;50.788;4.940;2023-04-25T10:11:41;12.30;99.90
13610;DHT22;6876;50.788;4.940;2023-04-25T10:14:31;11.50;99.90
13610;DHT22;6876;50.788;4.940;2023-04-25T10:17:19;10.70;99.90
13610;DHT22;6876;50.788;4.940;2023-04-25T10:20:09;10.50;99.90
13610;DHT22;6876;50.788;4.940;2023-04-25T10:23:03;10.20;99.90
13610;DHT22;6876;50.788;4.940;2023-04-25T10:25:54;10.20;99.90
13610;DHT22;6876;50.788;4.940;2023-04-25T10:28:57;10.10;99.90
13610;DHT22;6876;50.788;4.940;2023-04-25T10:31:45;10.20;99.90
13610;DHT22;6876;50.788;4.940;2023-04-25T10:34:40;10.30;99.90
13610;DHT22;6876;50.788;4.940;2023-04-25T10:37:30;10.40;99.90
13610;DHT22;6876;50.788;4.940;2023-04-25T10:40:21;10.70;99.90
13610;DHT22;6876;50.788;4.940;2023-04-25T10:43:39;11.20;99.90
13610;DHT22;6876;50.788;4.940;2023-04-25T10:46:28;11.80;99.90
13610;DHT22;6876;50.788;4.940;2023-04-25T10:49:32;11.90;99.90
13610;DHT22;6876;50.788;4.940;2023-04-25T10:52:25;12.10;99.90
13610;DHT22;6876;50.788;4.940;2023-04-25T10:55:15;12.70;99.90
13610;DHT22;6876;50.788;4.940;2023-04-25T10:58:02;13.50;99.90
13610;DHT22;6876;50.788;4.940;2023-04-25T11:00:50;14.00;90.20
13610;DHT22;6876;50.788;4.940;2023-04-25T11:03:40;14.20;1.00
13610;DHT22;6876;50.788;4.940;2023-04-25T11:06:32;14.50;1.00
13610;DHT22;6876;50.788;4.940;2023-04-25T11:09:24;14.30;1.00
13610;DHT22;6876;50.788;4.940;2023-04-25T11:12:13;14.50;1.00
13610;DHT22;6876;50.788;4.940;2023-04-25T11:15:03;14.80;99.90
13610;DHT22;6876;50.788;4.940;2023-04-25T11:17:51;14.80;99.90
13610;DHT22;6876;50.788;4.940;2023-04-25T11:20:39;14.10;99.90
13610;DHT22;6876;50.788;4.940;2023-04-25T11:23:30;14.70;99.90
13610;DHT22;6876;50.788;4.940;2023-04-25T11:26:19;14.90;1.00
13610;DHT22;6876;50.788;4.940;2023-04-25T11:29:08;15.20;3.40
13610;DHT22;6876;50.788;4.940;2023-04-25T11:31:56;15.10;1.00
13610;DHT22;6876;50.788;4.940;2023-04-25T11:34:44;15.60;45.80
13610;DHT22;6876;50.788;4.940;2023-04-25T11:37:32;15.40;1.00
13610;DHT22;6876;50.788;4.940;2023-04-25T11:40:20;15.50;1.00
13610;DHT22;6876;50.788;4.940;2023-04-25T11:43:09;15.00;99.00
13610;DHT22;6876;50.788;4.940;2023-04-25T11:45:58;14.80;99.90
13610;DHT22;6876;50.788;4.940;2023-04-25T11:48:45;14.20;99.90
13610;DHT22;6876;50.788;4.940;2023-04-25T11:51:38;13.80;1.00
13610;DHT22;6876;50.788;4.940;2023-04-25T11:54:26;13.70;99.90
13610;DHT22;6876;50.788;4.940;2023-04-25T11:57:13;14.10;1.00
13610;DHT22;6876;50.788;4.940;2023-04-25T12:00:12;14.20;1.00
13610;DHT22;6876;50.788;4.940;2023-04-25T12:03:01;14.70;1.00
13610;DHT22;6876;50.788;4.940;2023-04-25T12:05:50;15.30;1.00
13610;DHT22;6876;50.788;4.940;2023-04-25T12:08:37;15.30;99.90
13610;DHT22;6876;50.788;4.940;2023-04-25T12:11:24;14.90;99.90
13610;DHT22;6876;50.788;4.940;2023-04-25T12:14:12;14.70;1.00
13610;DHT22;6876;50.788;4.940;2023-04-25T12:17:01;14.10;1.00
13610;DHT22;6876;50.788;4.940;2023-04-25T12:19:50;13.90;1.00
13610;DHT22;6876;50.788;4.940;2023-04-25T12:22:37;13.40;1.00
13610;DHT22;6876;50.788;4.940;2023-04-25T12:25:38;12.70;1.00
13610;DHT22;6876;50.788;4.940;2023-04-25T12:28:25;12.00;1.00
13610;DHT22;6876;50.788;4.940;2023-04-25T12:31:14;11.50;1.00
13610;DHT22;6876;50.788;4.940;2023-04-25T12:34:02;11.30;99.90
13610;DHT22;6876;50.788;4.940;2023-04-25T12:36:51;11.10;99.90
13610;DHT22;6876;50.788;4.940;2023-04-25T12:39:39;11.10;1.00
13610;DHT22;6876;50.788;4.940;2023-04-25T12:42:26;11.00;1.00
13610;DHT22;6876;50.788;4.940;2023-04-25T12:45:14;11.10;1.00
13610;DHT22;6876;50.788;4.940;2023-04-25T12:48:01;11.30;1.00
13610;DHT22;6876;50.788;4.940;2023-04-25T12:50:49;11.40;1.00
13610;DHT22;6876;50.788;4.940;2023-04-25T12:53:39;11.80;1.00
13610;DHT22;6876;50.788;4.940;2023-04-25T12:56:26;12.20;1.00
13610;DHT22;6876;50.788;4.940;2023-04-25T12:59:13;12.60;1.00
13610;DHT22;6876;50.788;4.940;2023-04-25T13:02:01;13.10;1.00
13610;DHT22;6876;50.788;4.940;2023-04-25T13:04:48;13.40;99.90
13610;DHT22;6876;50.788;4.940;2023-04-25T13:07:37;13.90;99.90
13610;DHT22;6876;50.788;4.940;2023-04-25T13:10:26;14.20;99.90
13610;DHT22;6876;50.788;4.940;2023-04-25T13:13:13;14.30;1.00
13610;DHT22;6876;50.788;4.940;2023-04-25T13:16:00;14.30;1.00
13610;DHT22;6876;50.788;4.940;2023-04-25T13:18:48;14.20;1.00
13610;DHT22;6876;50.788;4.940;2023-04-25T13:21:35;14.10;1.00
13610;DHT22;6876;50.788;4.940;2023-04-25T13:24:23;13.90;1.00
13610;DHT22;6876;50.788;4.940;2023-04-25T13:27:12;13.60;1.00
13610;DHT22;6876;50.788;4.940;2023-04-25T13:29:59;13.50;1.00
13610;DHT22;6876;50.788;4.940;2023-04-25T13:32:46;13.00;99.90
13610;DHT22;6876;50.788;4.940;2023-04-25T13:35:35;12.60;99.90
13610;DHT22;6876;50.788;4.940;2023-04-25T13:38:23;12.40;99.90
13610;DHT22;6876;50.788;4.940;2023-04-25T13:41:11;12.30;99.90
13610;DHT22;6876;50.788;4.940;2023-04-25T13:44:05;12.40;99.90
13610;DHT22;6876;50.788;4.940;2023-04-25T13:46:52;12.40;1.00
13610;DHT22;6876;50.788;4.940;2023-04-25T13:49:39;12.50;1.00
13610;DHT22;6876;50.788;4.940;2023-04-25T13:52:27;12.50;1.00
13610;DHT22;6876;50.788;4.940;2023-04-25T13:55:14;12.80;1.00
13610;DHT22;6876;50.788;4.940;2023-04-25T13:58:02;13.10;1.00
13610;DHT22;6876;50.788;4.940;2023-04-25T14:00:54;13.00;1.00
13610;DHT22;6876;50.788;4.940;2023-04-25T14:03:42;12.90;1.00
13610;DHT22;6876;50.788;4.940;2023-04-25T14:06:30;12.70;1.00
13610;DHT22;6876;50.788;4.940;2023-04-25T14:09:19;12.70;1.00
13610;DHT22;6876;50.788;4.940;2023-04-25T14:12:08;12.70;1.00
13610;DHT22;6876;50.788;4.940;2023-04-25T14:14:55;12.50;1.00
13610;DHT22;6876;50.788;4.940;2023-04-25T14:17:44;12.40;1.00
13610;DHT22;6876;50.788;4.940;2023-04-25T14:20:32;12.60;1.00
13610;DHT22;6876;50.788;4.940;2023-04-25T14:23:19;12.70;1.00
13610;DHT22;6876;50.788;4.940;2023-04-25T14:26:06;13.20;1.00
13610;DHT22;6876;50.788;4.940;2023-04-25T14:28:57;13.50;1.00
13610;DHT22;6876;50.788;4.940;2023-04-25T14:31:45;13.40;1.00
13610;DHT22;6876;50.788;4.940;2023-04-25T14:34:33;13.40;1.00
13610;DHT22;6876;50.788;4.940;2023-04-25T14:37:21;13.60;1.00
13610;DHT22;6876;50.788;4.940;2023-04-25T14:40:09;13.60;1.00
13610;DHT22;6876;50.788;4.940;2023-04-25T14:42:58;13.70;1.00
13610;DHT22;6876;50.788;4.940;2023-04-25T14:45:45;13.80;1.00
13610;DHT22;6876;50.788;4.940;2023-04-25T14:48:33;13.90;99.90
13610;DHT22;6876;50.788;4.940;2023-04-25T14:51:22;13.70;56.40
13610;DHT22;6876;50.788;4.940;2023-04-25T14:54:09;13.60;76.10
13610;DHT22;6876;50.788;4.940;2023-04-25T14:56:57;13.50;1.00
13610;DHT22;6876;50.788;4.940;2023-04-25T14:59:45;13.70;99.90
13610;DHT22;6876;50.788;4.940;2023-04-25T15:02:33;13.80;99.90
13610;DHT22;6876;50.788;4.940;2023-04-25T15:05:21;13.60;99.90
13610;DHT22;6876;50.788;4.940;2023-04-25T15:08:11;13.50;99.90
13610;DHT22;6876;50.788;4.940;2023-04-25T15:10:58;13.60;99.90
13610;DHT22;6876;50.788;4.940;2023-04-25T15:13:45;13.50;99.90
13610;DHT22;6876;50.788;4.940;2023-04-25T15:16:33;13.30;1.00
13610;DHT22;6876;50.788;4.940;2023-04-25T15:19:20;13.30;99.90
13610;DHT22;6876;50.788;4.940;2023-04-25T15:22:07;13.10;99.90
13610;DHT22;6876;50.788;4.940;2023-04-25T15:24:56;13.10;99.90
13610;DHT22;6876;50.788;4.940;2023-04-25T15:27:44;12.90;99.90
13610;DHT22;6876;50.788;4.940;2023-04-25T15:30:34;12.60;99.90
13610;DHT22;6876;50.788;4.940;2023-04-25T15:33:21;12.30;58.80
13610;DHT22;6876;50.788;4.940;2023-04-25T15:36:09;12.20;99.90
13610;DHT22;6876;50.788;4.940;2023-04-25T15:38:56;12.10;99.90
13610;DHT22;6876;50.788;4.940;2023-04-25T15:41:46;12.20;99.90
13610;DHT22;6876;50.788;4.940;2023-04-25T15:44:33;12.40;99.90
13610;DHT22;6876;50.788;4.940;2023-04-25T15:47:20;12.40;99.90
13610;DHT22;6876;50.788;4.940;2023-04-25T15:50:09;12.20;99.90
13610;DHT22;6876;50.788;4.940;2023-04-25T15:52:56;12.00;99.90
13610;DHT22;6876;50.788;4.940;2023-04-25T15:55:44;11.90;99.90
13610;DHT22;6876;50.788;4.940;2023-04-25T15:58:32;12.00;99.90
13610;DHT22;6876;50.788;4.940;2023-04-25T16:01:21;12.00;99.90
13610;DHT22;6876;50.788;4.940;2023-04-25T16:04:09;12.30;99.90
13610;DHT22;6876;50.788;4.940;2023-04-25T16:06:56;12.40;99.90
13610;DHT22;6876;50.788;4.940;2023-04-25T16:09:44;12.60;99.90
13610;DHT22;6876;50.788;4.940;2023-04-25T16:12:31;12.70;99.90
13610;DHT22;6876;50.788;4.940;2023-04-25T16:15:20;12.50;99.90
13610;DHT22;6876;50.788;4.940;2023-04-25T16:18:07;12.50;99.90
13610;DHT22;6876;50.788;4.940;2023-04-25T16:20:55;12.30;99.90
13610;DHT22;6876;50.788;4.940;2023-04-25T16:23:42;12.10;1.00
13610;DHT22;6876;50.788;4.940;2023-04-25T16:26:30;12.10;6.90
13610;DHT22;6876;50.788;4.940;2023-04-25T16:29:17;12.00;99.90
13610;DHT22;6876;50.788;4.940;2023-04-25T16:32:06;12.10;99.90
13610;DHT22;6876;50.788;4.940;2023-04-25T16:34:54;12.00;99.90
13610;DHT22;6876;50.788;4.940;2023-04-25T16:37:41;12.10;1.00
13610;DHT22;6876;50.788;4.940;2023-04-25T16:40:30;12.30;24.80
13610;DHT22;6876;50.788;4.940;2023-04-25T16:43:18;12.40;99.90
13610;DHT22;6876;50.788;4.940;2023-04-25T16:46:06;12.50;99.90
13610;DHT22;6876;50.788;4.940;2023-04-25T16:48:55;12.50;99.90
13610;DHT22;6876;50.788;4.940;2023-04-25T16:51:42;12.60;99.90
13610;DHT22;6876;50.788;4.940;2023-04-25T16:54:30;12.60;99.90
13610;DHT22;6876;50.788;4.940;2023-04-25T16:57:17;12.50;99.90
13610;DHT22;6876;50.788;4.940;2023-04-25T17:00:06;12.40;99.90
13610;DHT22;6876;50.788;4.940;2023-04-25T17:02:56;12.20;99.90
13610;DHT22;6876;50.788;4.940;2023-04-25T17:05:44;11.90;99.90
13610;DHT22;6876;50.788;4.940;2023-04-25T17:08:33;11.80;99.90
13610;DHT22;6876;50.788;4.940;2023-04-25T17:11:20;11.70;99.90
13610;DHT22;6876;50.788;4.940;2023-04-25T17:14:07;11.80;99.90
13610;DHT22;6876;50.788;4.940;2023-04-25T17:16:55;11.90;99.90
13610;DHT22;6876;50.788;4.940;2023-04-25T17:19:42;11.60;99.90
13610;DHT22;6876;50.788;4.940;2023-04-25T17:22:32;11.60;99.90
13610;DHT22;6876;50.788;4.940;2023-04-25T17:25:20;11.60;99.90
13610;DHT22;6876;50.788;4.940;2023-04-25T17:28:07;11.60;99.90
13610;DHT22;6876;50.788;4.940;2023-04-25T17:30:55;11.60;1.00
13610;DHT22;6876;50.788;4.940;2023-04-25T17:33:42;11.40;1.00
13610;DHT22;6876;50.788;4.940;2023-04-25T17:36:30;11.30;28.70
13610;DHT22;6876;50.788;4.940;2023-04-25T17:39:19;11.30;51.30
13610;DHT22;6876;50.788;4.940;2023-04-25T17:42:06;11.20;98.70
13610;DHT22;6876;50.788;4.940;2023-04-25T17:44:53;11.30;44.40
13610;DHT22;6876;50.788;4.940;2023-04-25T17:47:41;11.10;58.30
13610;DHT22;6876;50.788;4.940;2023-04-25T17:50:28;11.20;99.90
13610;DHT22;6876;50.788;4.940;2023-04-25T17:53:16;11.10;99.90
13610;DHT22;6876;50.788;4.940;2023-04-25T17:56:05;11.00;99.90
13610;DHT22;6876;50.788;4.940;2023-04-25T17:58:52;11.00;99.90
13610;DHT22;6876;50.788;4.940;2023-04-25T18:01:40;11.00;99.90
13610;DHT22;6876;50.788;4.940;2023-04-25T18:04:27;11.00;99.90
13610;DHT22;6876;50.788;4.940;2023-04-25T18:07:15;11.00;99.90
13610;DHT22;6876;50.788;4.940;2023-04-25T18:10:02;10.90;99.90
13610;DHT22;6876;50.788;4.940;2023-04-25T18:12:52;10.90;99.90
13610;DHT22;6876;50.788;4.940;2023-04-25T18:15:39;10.80;99.90